Time;durP1;ratioP1;P1;durP2;ratioP2;P2;SDS_P1;SDS_P2;PMS_P1;PMS_P2;Temp;Humidity;BMP_temperature;BMP_pressure;BME280_temperature;BME280_humidity;BME280_pressure;Samples;Min_cycle;Max_cycle;Signal;HPM_P1;HPM_P2
2021/09/05 00:01:22;;;;;;;23.23;10.30;;;17.70;92.10;;;;;;5090148;28;20035;-76
2021/09/05 00:03:48;;;;;;;22.15;11.48;;;17.60;92.10;;;;;;5108233;28;20058;-77
2021/09/05 00:06:13;;;;;;;;;;;17.60;92.10;;;;;;5090298;28;20027;-77
2021/09/05 00:08:41;;;;;;;21.05;11.23;;;17.50;92.10;;;;;;5107910;28;19919;-77
2021/09/05 00:11:07;;;;;;;22.02;12.15;;;17.40;92.10;;;;;;5108022;28;20028;-77
2021/09/05 00:13:32;;;;;;;23.17;12.32;;;17.40;92.20;;;;;;5073174;28;20038;-77
2021/09/05 00:15:58;;;;;;;23.58;11.20;;;17.30;92.30;;;;;;5089643;28;20470;-77
2021/09/05 00:18:24;;;;;;;19.75;11.25;;;17.20;92.40;;;;;;5089583;28;20065;-77
2021/09/05 00:20:50;;;;;;;22.58;12.10;;;17.10;92.40;;;;;;5107895;28;20048;-77
2021/09/05 00:23:15;;;;;;;22.98;11.73;;;17.10;92.60;;;;;;5107841;28;20046;-77
2021/09/05 00:25:41;;;;;;;25.65;12.38;;;17.00;92.70;;;;;;5088958;28;20115;-76
2021/09/05 00:28:07;;;;;;;25.60;11.95;;;17.00;92.80;;;;;;5089822;28;20031;-77
2021/09/05 00:30:33;;;;;;;24.80;12.95;;;16.90;92.90;;;;;;5072750;28;20055;-77
2021/09/05 00:33:01;;;;;;;20.65;11.23;;;16.80;93.00;;;;;;5089602;28;20514;-77
2021/09/05 00:35:27;;;;;;;24.05;11.63;;;16.80;93.00;;;;;;5073703;28;20024;-77
2021/09/05 00:37:53;;;;;;;25.77;12.60;;;16.80;93.20;;;;;;5089731;28;20093;-77
2021/09/05 00:40:19;;;;;;;29.23;13.30;;;16.80;93.20;;;;;;5107918;28;20046;-76
2021/09/05 00:42:44;;;;;;;24.45;12.05;;;16.80;93.20;;;;;;5107772;28;20374;-77
2021/09/05 00:45:11;;;;;;;27.27;12.25;;;16.80;93.20;;;;;;5107666;28;20051;-77
2021/09/05 00:47:36;;;;;;;;;;;16.80;93.20;;;;;;5089709;28;20120;-78
2021/09/05 00:50:03;;;;;;;26.67;13.07;;;16.80;93.20;;;;;;5072681;28;20003;-78
2021/09/05 00:52:29;;;;;;;23.52;11.05;;;16.90;93.10;;;;;;5107745;28;20020;-78
2021/09/05 00:54:55;;;;;;;26.90;13.13;;;16.90;93.10;;;;;;5089554;28;20032;-77
2021/09/05 00:57:22;;;;;;;;;;;16.90;93.20;;;;;;5089640;28;20126;-76
2021/09/05 00:59:48;;;;;;;22.55;12.18;;;16.90;93.10;;;;;;5107571;28;20337;-77
2021/09/05 01:02:14;;;;;;;21.00;11.00;;;16.90;93.00;;;;;;5107568;28;20063;-77
2021/09/05 01:04:41;;;;;;;24.10;11.77;;;16.90;93.00;;;;;;5089597;28;20440;-77
2021/09/05 01:07:06;;;;;;;22.33;11.25;;;17.00;93.00;;;;;;5072409;28;20038;-77
2021/09/05 01:09:32;;;;;;;25.35;11.60;;;17.00;93.10;;;;;;5107623;28;20032;-77
2021/09/05 01:11:59;;;;;;;23.20;11.85;;;17.00;93.10;;;;;;5089433;28;20410;-76
2021/09/05 01:14:25;;;;;;;24.00;12.18;;;17.00;93.00;;;;;;5107463;28;20102;-77
2021/09/05 01:16:52;;;;;;;23.75;11.73;;;17.00;93.00;;;;;;5089247;28;20031;-78
2021/09/05 01:19:20;;;;;;;24.77;12.15;;;17.00;93.00;;;;;;5107569;28;20031;-78
2021/09/05 01:21:48;;;;;;;27.13;12.57;;;17.00;93.10;;;;;;5107410;28;20031;-77
2021/09/05 01:24:14;;;;;;;24.83;11.57;;;17.00;93.10;;;;;;5107370;28;20038;-77
2021/09/05 01:26:43;;;;;;;22.23;11.52;;;17.00;93.10;;;;;;5089092;28;20035;-77
2021/09/05 01:29:10;;;;;;;21.88;11.38;;;17.00;93.10;;;;;;5107310;28;20541;-77
2021/09/05 01:31:45;;;;;;;23.77;12.82;;;16.90;93.10;;;;;;5107379;28;20458;-77
2021/09/05 01:34:14;;;;;;;25.03;12.93;;;16.80;93.20;;;;;;5107513;28;20051;-77
2021/09/05 01:36:40;;;;;;;21.17;11.45;;;16.80;93.20;;;;;;5109626;28;20028;-76
2021/09/05 01:39:07;;;;;;;23.52;11.60;;;16.80;93.20;;;;;;5110967;28;20531;-78
2021/09/05 01:41:33;;;;;;;23.80;11.02;;;16.70;93.20;;;;;;5092660;28;20501;-78
2021/09/05 01:44:00;;;;;;;27.45;12.05;;;16.60;93.30;;;;;;5110891;28;20028;-76
2021/09/05 01:46:26;;;;;;;22.63;11.57;;;16.60;93.40;;;;;;5110642;28;20059;-77
2021/09/05 01:48:52;;;;;;;25.77;13.55;;;16.50;93.50;;;;;;5110799;28;20039;-77
2021/09/05 01:51:18;;;;;;;22.92;12.13;;;16.40;93.60;;;;;;5110829;28;20027;-76
2021/09/05 01:53:44;;;;;;;25.75;12.90;;;16.40;93.70;;;;;;5110654;28;20032;-79
2021/09/05 01:56:09;;;;;;;25.25;11.95;;;16.30;93.70;;;;;;5075574;28;20436;-77
2021/09/05 01:58:35;;;;;;;23.83;12.38;;;16.20;93.70;;;;;;5110485;28;20031;-77
2021/09/05 02:01:01;;;;;;;27.30;12.90;;;16.20;93.90;;;;;;5092190;28;20389;-76
2021/09/05 02:03:26;;;;;;;23.65;11.30;;;16.10;93.90;;;;;;5092398;28;20020;-79
2021/09/05 02:05:52;;;;;;;28.00;12.30;;;16.10;94.00;;;;;;5092281;28;20053;-78
2021/09/05 02:08:18;;;;;;;23.33;12.25;;;16.10;94.10;;;;;;5110409;28;20144;-78
2021/09/05 02:10:43;;;;;;;23.85;11.93;;;16.10;94.20;;;;;;5110299;28;20057;-77
2021/09/05 02:13:09;;;;;;;21.92;11.52;;;16.00;94.20;;;;;;5092235;28;20035;-77
2021/09/05 02:15:35;;;;;;;27.60;11.52;;;16.00;94.20;;;;;;5110332;28;20067;-78
2021/09/05 02:18:01;;;;;;;26.35;11.95;;;15.90;94.20;;;;;;5110313;28;20141;-76
2021/09/05 02:20:26;;;;;;;20.92;11.85;;;15.90;94.30;;;;;;5075096;28;20043;-76
2021/09/05 02:22:52;;;;;;;28.70;12.00;;;15.80;94.30;;;;;;5110240;28;20028;-77
2021/09/05 02:25:18;;;;;;;24.77;10.68;;;15.70;94.50;;;;;;5110014;28;20035;-77
2021/09/05 02:27:44;;;;;;;21.95;11.57;;;15.70;94.60;;;;;;5109914;28;20024;-77
2021/09/05 02:30:10;;;;;;;24.92;11.88;;;15.70;94.60;;;;;;5110141;28;20089;-76
2021/09/05 02:32:37;;;;;;;23.20;11.05;;;15.60;94.60;;;;;;5091964;28;20374;-77
2021/09/05 02:35:04;;;;;;;25.13;11.45;;;15.60;94.70;;;;;;5110029;28;20035;-77
2021/09/05 02:37:29;;;;;;;24.50;11.82;;;15.50;94.80;;;;;;5109863;28;20031;-77
2021/09/05 02:39:55;;;;;;;22.30;10.73;;;15.50;94.80;;;;;;5109824;28;20359;-76
2021/09/05 02:42:21;;;;;;;25.48;11.75;;;15.50;94.80;;;;;;5074864;28;20115;-78
2021/09/05 02:44:46;;;;;;;24.75;11.55;;;15.50;94.80;;;;;;5091295;28;20028;-77
2021/09/05 02:47:12;;;;;;;20.85;10.65;;;15.50;94.80;;;;;;5108653;28;20036;-77
2021/09/05 02:49:38;;;;;;;24.30;12.30;;;15.40;94.80;;;;;;5109661;28;20022;-78
2021/09/05 02:52:05;;;;;;;20.73;10.85;;;15.40;95.00;;;;;;5109636;28;20028;-79
2021/09/05 02:54:31;;;;;;;21.98;11.30;;;15.40;94.90;;;;;;5109531;28;20458;-76
2021/09/05 02:56:57;;;;;;;23.45;10.95;;;15.40;94.90;;;;;;5074509;28;20103;-78
2021/09/05 02:59:23;;;;;;;23.50;11.70;;;15.30;95.00;;;;;;5074244;28;20028;-77
2021/09/05 03:01:48;;;;;;;24.92;12.15;;;15.30;95.00;;;;;;5091214;28;20532;-77
2021/09/05 03:04:14;;;;;;;24.15;12.57;;;15.30;95.10;;;;;;5109374;28;20032;-77
2021/09/05 03:06:40;;;;;;;22.50;10.50;;;15.30;95.20;;;;;;5109216;28;20031;-76
2021/09/05 03:09:05;;;;;;;24.00;12.25;;;15.30;95.20;;;;;;5109161;28;20047;-77
2021/09/05 03:11:31;;;;;;;27.85;12.32;;;15.30;95.30;;;;;;5109511;28;20114;-77
2021/09/05 03:13:57;;;;;;;24.48;11.80;;;15.30;95.40;;;;;;5091007;28;20085;-77
2021/09/05 03:16:23;;;;;;;24.48;12.30;;;15.30;95.40;;;;;;5073863;28;20122;-77
2021/09/05 03:18:49;;;;;;;25.67;11.48;;;15.30;95.40;;;;;;5109080;28;20107;-77
2021/09/05 03:21:14;;;;;;;26.65;11.68;;;15.30;95.40;;;;;;5074026;28;20114;-77
2021/09/05 03:23:40;;;;;;;22.67;11.07;;;15.30;95.40;;;;;;5090709;28;20031;-77
2021/09/05 03:26:06;;;;;;;22.35;11.70;;;15.30;95.40;;;;;;5108921;28;20385;-76
2021/09/05 03:28:31;;;;;;;21.30;12.05;;;15.30;95.50;;;;;;5108755;28;20028;-76
2021/09/05 03:30:57;;;;;;;24.20;11.10;;;15.40;95.50;;;;;;5108930;28;20359;-77
2021/09/05 03:33:23;;;;;;;24.75;12.10;;;15.40;95.50;;;;;;5073791;28;20076;-79
2021/09/05 03:35:49;;;;;;;22.23;11.98;;;15.40;95.50;;;;;;5090443;28;20031;-77
2021/09/05 03:38:14;;;;;;;21.45;11.70;;;15.40;95.50;;;;;;5108566;28;20024;-77
2021/09/05 03:40:40;;;;;;;23.27;11.35;;;15.40;95.60;;;;;;5090355;28;20046;-77
2021/09/05 03:43:06;;;;;;;21.77;10.73;;;15.40;95.50;;;;;;5056903;28;20035;-77
2021/09/05 03:45:31;;;;;;;20.20;10.27;;;15.30;95.50;;;;;;5073132;28;20531;-76
2021/09/05 03:47:57;;;;;;;24.40;11.43;;;15.30;95.50;;;;;;5108584;28;20050;-76
2021/09/05 03:50:23;;;;;;;19.13;10.90;;;15.20;95.50;;;;;;5090332;28;20023;-77
2021/09/05 03:52:49;;;;;;;19.27;9.57;;;15.20;95.60;;;;;;5108523;28;20300;-78
2021/09/05 03:55:15;;;;;;;21.42;9.50;;;15.10;95.70;;;;;;5090434;28;20047;-77
2021/09/05 03:57:41;;;;;;;25.00;11.95;;;15.00;95.80;;;;;;5090093;28;20371;-77
2021/09/05 04:00:08;;;;;;;20.63;10.48;;;15.00;95.90;;;;;;5108126;28;20080;-77
2021/09/05 04:02:34;;;;;;;22.65;11.30;;;15.00;95.90;;;;;;5108176;28;20036;-76
2021/09/05 04:05:00;;;;;;;23.05;11.60;;;14.90;95.90;;;;;;5089911;28;20043;-77
2021/09/05 04:07:25;;;;;;;23.27;11.05;;;14.90;96.00;;;;;;5107893;28;20081;-77
2021/09/05 04:10:09;;;;;;;25.17;11.88;;;14.90;95.90;;;;;;5108239;28;20143;-77
2021/09/05 04:12:39;;;;;;;24.80;11.48;;;14.90;95.90;;;;;;5089862;28;20031;-78
2021/09/05 04:15:06;;;;;;;21.23;11.05;;;14.90;95.90;;;;;;5089891;28;20054;-77
2021/09/05 04:17:31;;;;;;;25.02;12.07;;;14.80;95.90;;;;;;5108040;28;20070;-77
2021/09/05 04:19:57;;;;;;;23.63;11.45;;;14.90;96.00;;;;;;5108107;28;20494;-78
2021/09/05 04:22:23;;;;;;;24.40;11.57;;;14.90;96.10;;;;;;5108052;28;20482;-77
2021/09/05 04:24:49;;;;;;;22.65;12.43;;;14.90;96.10;;;;;;5108263;28;20030;-77
2021/09/05 04:27:15;;;;;;;25.83;12.35;;;14.90;96.20;;;;;;5089682;28;20435;-76
2021/09/05 04:29:41;;;;;;;23.63;11.38;;;14.90;96.30;;;;;;5107822;28;20020;-78
2021/09/05 04:32:07;;;;;;;24.70;12.30;;;14.90;96.30;;;;;;5107956;28;20024;-77
2021/09/05 04:34:33;;;;;;;25.48;12.10;;;14.90;96.40;;;;;;5108055;28;20077;-77
2021/09/05 04:36:58;;;;;;;22.60;12.00;;;15.00;96.50;;;;;;5089595;28;20374;-77
2021/09/05 04:39:24;;;;;;;23.50;11.40;;;15.00;96.40;;;;;;5107926;28;20118;-77
2021/09/05 04:41:50;;;;;;;25.40;12.18;;;15.00;96.50;;;;;;5089772;28;20024;-77
2021/09/05 04:44:15;;;;;;;22.60;10.57;;;15.10;96.60;;;;;;5107882;28;20039;-77
2021/09/05 04:46:41;;;;;;;28.83;11.52;;;15.00;96.50;;;;;;5089424;28;20418;-77
2021/09/05 04:49:07;;;;;;;23.08;11.57;;;15.00;96.50;;;;;;5089286;28;20032;-77
2021/09/05 04:51:33;;;;;;;23.73;11.27;;;15.00;96.40;;;;;;5089477;28;20115;-77
2021/09/05 04:53:58;;;;;;;31.60;14.50;;;15.00;96.40;;;;;;5089627;28;20085;-77
2021/09/05 04:56:24;;;;;;;22.73;11.73;;;15.00;96.40;;;;;;5107707;28;20557;-77
2021/09/05 04:58:50;;;;;;;23.85;12.40;;;15.10;96.50;;;;;;5089833;28;20035;-77
2021/09/05 05:01:15;;;;;;;20.55;10.77;;;15.10;96.50;;;;;;5107677;28;20036;-77
2021/09/05 05:03:41;;;;;;;23.90;12.18;;;15.10;96.50;;;;;;5072557;28;20405;-75
2021/09/05 05:06:07;;;;;;;22.52;12.23;;;15.10;96.60;;;;;;5107577;28;20043;-78
2021/09/05 05:08:34;;;;;;;26.52;10.43;;;15.10;96.60;;;;;;5107457;28;20034;-77
2021/09/05 05:11:01;;;;;;;25.08;11.85;;;15.10;96.60;;;;;;5108978;28;20016;-77
2021/09/05 05:13:27;;;;;;;24.38;11.27;;;15.00;96.60;;;;;;5093208;28;20409;-78
2021/09/05 05:15:55;;;;;;;;;;;15.00;96.50;;;;;;5093758;28;20019;-77
2021/09/05 05:18:25;;;;;;;20.80;11.32;;;15.00;96.40;;;;;;5093096;28;19920;-78
2021/09/05 05:20:51;;;;;;;23.00;10.40;;;15.00;96.30;;;;;;5111516;28;20030;-76
2021/09/05 05:23:17;;;;;;;22.23;11.02;;;15.10;96.40;;;;;;5093204;28;20491;-76
2021/09/05 05:25:43;;;;;;;;;;;15.00;96.30;;;;;;5093428;28;20031;-76
2021/09/05 05:28:09;;;;;;;22.92;11.18;;;15.00;96.30;;;;;;5110987;28;19912;-76
2021/09/05 05:30:34;;;;;;;24.40;10.88;;;15.00;96.20;;;;;;5092999;28;20102;-76
2021/09/05 05:33:00;;;;;;;20.77;10.77;;;15.00;96.20;;;;;;5111039;28;20488;-76
2021/09/05 05:35:26;;;;;;;20.60;10.35;;;15.00;96.30;;;;;;5111377;28;20029;-76
2021/09/05 05:37:52;;;;;;;19.23;10.93;;;15.00;96.30;;;;;;5075976;28;20477;-76
2021/09/05 05:40:22;;;;;;;19.30;10.15;;;15.00;96.40;;;;;;5110864;28;20157;-76
2021/09/05 05:42:49;;;;;;;21.23;10.48;;;15.00;96.50;;;;;;5110847;28;20059;-77
2021/09/05 05:45:18;;;;;;;24.42;10.95;;;15.00;96.50;;;;;;5110635;28;20171;-76
2021/09/05 05:47:46;;;;;;;20.35;11.15;;;15.10;96.60;;;;;;5110561;28;20034;-77
2021/09/05 05:50:12;;;;;;;22.20;11.38;;;15.10;96.60;;;;;;5110717;28;20382;-76
2021/09/05 05:52:38;;;;;;;;;;;15.20;96.60;;;;;;5111136;28;20095;-76
2021/09/05 05:55:05;;;;;;;21.80;11.23;;;15.30;96.50;;;;;;5110792;28;20022;-77
2021/09/05 05:57:31;;;;;;;21.05;11.18;;;15.40;96.40;;;;;;5092400;28;20441;-76
2021/09/05 05:59:56;;;;;;;19.65;10.60;;;15.50;96.40;;;;;;5110499;28;20063;-77
2021/09/05 06:02:22;;;;;;;19.60;10.75;;;15.50;96.30;;;;;;5110596;28;20391;-76
2021/09/05 06:04:48;;;;;;;21.45;10.50;;;15.60;96.30;;;;;;5110584;28;20254;-76
2021/09/05 06:07:14;;;;;;;21.27;10.60;;;15.60;96.20;;;;;;5110438;28;20039;-77
2021/09/05 06:09:43;;;;;;;23.33;10.10;;;15.60;96.20;;;;;;5110451;28;20107;-77
2021/09/05 06:12:09;;;;;;;20.08;10.57;;;15.70;96.20;;;;;;5110302;28;20035;-76
2021/09/05 06:14:36;;;;;;;24.30;11.13;;;15.70;96.20;;;;;;5110356;28;20378;-76
2021/09/05 06:17:03;;;;;;;20.42;10.02;;;15.70;96.30;;;;;;5110159;28;20459;-77
2021/09/05 06:19:29;;;;;;;20.65;10.27;;;15.80;96.30;;;;;;5091985;28;20070;-76
2021/09/05 06:21:54;;;;;;;;;;;15.90;96.30;;;;;;5092300;28;20031;-76
2021/09/05 06:24:20;;;;;;;23.77;10.57;;;16.00;96.20;;;;;;5109666;28;19908;-77
2021/09/05 06:26:46;;;;;;;21.60;10.40;;;16.10;96.10;;;;;;5091657;28;20055;-76
2021/09/05 06:29:12;;;;;;;;;;;16.30;96.00;;;;;;5110303;28;20027;-77
2021/09/05 06:31:38;;;;;;;19.40;11.02;;;16.40;96.00;;;;;;5109855;28;19943;-77
2021/09/05 06:34:03;;;;;;;22.23;11.85;;;16.50;95.80;;;;;;5109914;28;20063;-78
2021/09/05 06:36:29;;;;;;;20.30;10.57;;;16.60;95.80;;;;;;5109864;28;20111;-77
2021/09/05 06:38:55;;;;;;;20.85;10.20;;;16.70;95.90;;;;;;5109831;28;20032;-77
2021/09/05 06:41:21;;;;;;;23.05;10.80;;;16.70;95.80;;;;;;5091609;28;20042;-76
2021/09/05 06:43:47;;;;;;;23.20;11.75;;;16.80;95.80;;;;;;5109719;28;20034;-75
2021/09/05 06:46:13;;;;;;;21.63;10.95;;;17.00;95.80;;;;;;5109599;28;20055;-75
2021/09/05 06:48:42;;;;;;;;;;;17.10;95.70;;;;;;5091997;28;20028;-76
2021/09/05 06:51:09;;;;;;;22.80;11.85;;;17.20;95.60;;;;;;5109547;28;19903;-76
2021/09/05 06:53:34;;;;;;;20.90;11.52;;;17.40;95.50;;;;;;5109507;28;20095;-77
2021/09/05 06:56:00;;;;;;;24.10;11.90;;;17.50;95.40;;;;;;5091421;28;20102;-77
2021/09/05 06:58:26;;;;;;;20.50;11.23;;;17.60;95.30;;;;;;5109325;28;20046;-77
2021/09/05 07:00:52;;;;;;;24.08;11.25;;;17.70;95.30;;;;;;5091134;28;20031;-76
2021/09/05 07:03:18;;;;;;;20.98;11.23;;;17.80;95.30;;;;;;5090887;28;20039;-77
2021/09/05 07:05:44;;;;;;;19.92;9.65;;;17.90;95.20;;;;;;5109279;28;20393;-76
2021/09/05 07:08:09;;;;;;;;;;;17.90;95.20;;;;;;5091046;28;20031;-76
2021/09/05 07:10:38;;;;;;;24.52;11.52;;;18.00;95.20;;;;;;5090739;28;19914;-76
2021/09/05 07:13:04;;;;;;;22.05;11.70;;;18.10;95.10;;;;;;5109092;28;20098;-76
2021/09/05 07:15:30;;;;;;;23.25;12.15;;;18.10;95.10;;;;;;5090955;28;20106;-76
2021/09/05 07:17:56;;;;;;;24.17;12.35;;;18.20;95.00;;;;;;5108688;28;20039;-78
2021/09/05 07:20:22;;;;;;;29.60;13.32;;;18.30;95.00;;;;;;5108997;28;20024;-77
2021/09/05 07:22:47;;;;;;;24.13;11.68;;;18.30;94.90;;;;;;5108954;28;20044;-76
2021/09/05 07:25:13;;;;;;;25.73;12.77;;;18.40;94.90;;;;;;5108467;28;20408;-77
2021/09/05 07:27:39;;;;;;;;;;;18.40;94.80;;;;;;5110944;28;20037;-75
2021/09/05 07:30:06;;;;;;;22.13;12.02;;;18.50;94.80;;;;;;5108823;28;19961;-76
2021/09/05 07:32:32;;;;;;;24.42;12.73;;;18.50;94.80;;;;;;5108992;28;20226;-77
2021/09/05 07:34:57;;;;;;;23.73;12.13;;;18.50;94.80;;;;;;5108772;28;20382;-77
2021/09/05 07:37:23;;;;;;;26.55;12.23;;;18.60;94.90;;;;;;5109113;28;20508;-76
2021/09/05 07:39:49;;;;;;;22.20;11.40;;;18.60;94.90;;;;;;5109097;28;20374;-76
2021/09/05 07:42:15;;;;;;;23.45;12.23;;;18.60;94.90;;;;;;5090368;28;20054;-76
2021/09/05 07:44:40;;;;;;;26.65;12.15;;;18.70;94.90;;;;;;5108457;28;20074;-76
2021/09/05 07:47:06;;;;;;;22.27;12.10;;;18.80;95.00;;;;;;5108617;28;20097;-76
2021/09/05 07:49:32;;;;;;;22.98;11.25;;;18.80;95.00;;;;;;5108685;28;20513;-75
2021/09/05 07:51:58;;;;;;;23.20;11.95;;;18.90;95.20;;;;;;5090622;28;20024;-76
2021/09/05 07:54:24;;;;;;;23.30;11.55;;;18.90;95.00;;;;;;5090635;28;20035;-76
2021/09/05 07:56:49;;;;;;;28.50;12.45;;;19.00;95.00;;;;;;5090303;28;20065;-76
2021/09/05 07:59:15;;;;;;;27.35;13.25;;;19.10;95.10;;;;;;5090641;28;20036;-76
2021/09/05 08:01:41;;;;;;;;;;;19.20;95.10;;;;;;5109050;28;20035;-76
2021/09/05 08:04:06;;;;;;;25.13;12.23;;;19.30;95.00;;;;;;5108414;28;19914;-76
2021/09/05 08:06:32;;;;;;;22.88;12.32;;;19.40;94.90;;;;;;5108589;28;20042;-76
2021/09/05 08:08:58;;;;;;;21.23;12.32;;;19.50;94.90;;;;;;5089835;28;20031;-77
2021/09/05 08:11:26;;;;;;;;;;;19.60;95.00;;;;;;5108463;28;20390;-76
2021/09/05 08:13:52;;;;;;;25.38;14.10;;;19.70;94.80;;;;;;5107902;28;19914;-76
2021/09/05 08:16:18;;;;;;;25.75;13.85;;;19.80;94.50;;;;;;5107949;28;20107;-76
2021/09/05 08:18:44;;;;;;;;;;;19.90;94.40;;;;;;5073038;28;20035;-77
2021/09/05 08:21:10;;;;;;;24.17;13.02;;;20.00;94.30;;;;;;5107854;28;19925;-70
2021/09/05 08:23:37;;;;;;;24.15;12.73;;;20.00;94.10;;;;;;5107663;28;20040;-76
2021/09/05 08:26:04;;;;;;;24.58;12.90;;;20.10;94.10;;;;;;5107573;28;20405;-76
2021/09/05 08:28:31;;;;;;;23.75;13.07;;;20.00;94.00;;;;;;5088938;28;20074;-77
2021/09/05 08:30:57;;;;;;;26.27;13.55;;;20.00;94.10;;;;;;5107708;28;20028;-76
2021/09/05 08:33:23;;;;;;;;;;;20.00;94.10;;;;;;5089881;28;20020;-76
2021/09/05 08:35:49;;;;;;;24.08;13.35;;;20.10;94.20;;;;;;5107760;28;19908;-77
2021/09/05 08:38:15;;;;;;;25.80;12.88;;;20.20;94.20;;;;;;5089739;28;20028;-77
2021/09/05 08:40:45;;;;;;;;;;;20.40;94.20;;;;;;5108062;28;20024;-76
2021/09/05 08:43:12;;;;;;;23.10;12.80;;;20.60;94.20;;;;;;5107474;28;19903;-77
2021/09/05 08:45:39;;;;;;;22.23;12.32;;;21.00;94.20;;;;;;5108010;28;20122;-76
2021/09/05 08:48:06;;;;;;;22.30;12.52;;;21.40;93.80;;;;;;5111904;28;20030;-76
2021/09/05 08:50:33;;;;;;;25.48;12.52;;;22.00;93.50;;;;;;5111569;28;20580;-78
2021/09/05 08:52:59;;;;;;;24.65;13.02;;;22.40;92.60;;;;;;5111268;28;20128;-76
2021/09/05 08:55:25;;;;;;;;;;;22.90;92.20;;;;;;5111551;28;20028;-77
2021/09/05 08:57:51;;;;;;;23.70;12.63;;;23.40;92.20;;;;;;5111547;28;19935;-77
2021/09/05 09:00:17;;;;;;;25.90;12.82;;;23.70;91.40;;;;;;5092821;28;20042;-76
2021/09/05 09:02:54;;;;;;;24.60;13.70;;;23.90;90.30;;;;;;5093112;28;20327;-78
2021/09/05 09:05:32;;;;;;;28.80;15.18;;;23.80;88.80;;;;;;5093106;28;20397;-77
2021/09/05 09:08:04;;;;;;;31.08;16.17;;;23.70;87.90;;;;;;5092740;28;20030;-76
2021/09/05 09:10:31;;;;;;;30.75;16.75;;;23.70;87.50;;;;;;5111078;28;20020;-77
2021/09/05 09:12:57;;;;;;;29.35;17.35;;;23.80;87.10;;;;;;5111115;28;20062;-75
2021/09/05 09:15:33;;;;;;;29.63;16.35;;;24.00;86.30;;;;;;5092923;28;20047;-77
2021/09/05 09:18:04;;;;;;;30.77;16.45;;;24.20;85.40;;;;;;5110489;28;20322;-76
2021/09/05 09:20:41;;;;;;;27.45;15.45;;;24.50;84.60;;;;;;5110999;28;20032;-78
2021/09/05 09:23:11;;;;;;;27.23;15.68;;;25.10;84.00;;;;;;5111039;28;20053;-77
2021/09/05 09:25:38;;;;;;;27.27;15.77;;;25.90;83.80;;;;;;5092456;28;20031;-76
2021/09/05 09:28:23;;;;;;;27.58;15.75;;;27.10;82.20;;;;;;5110566;28;20110;-76
2021/09/05 09:30:48;;;;;;;28.08;16.60;;;28.10;78.10;;;;;;5091755;28;20452;-75
2021/09/05 09:33:22;;;;;;;31.95;16.70;;;28.60;74.30;;;;;;5091888;28;20077;-75
2021/09/05 09:35:51;;;;;;;26.67;15.80;;;28.50;72.20;;;;;;5110437;28;20027;-76
2021/09/05 09:38:18;;;;;;;28.90;17.05;;;28.30;70.80;;;;;;5110616;28;20022;-75
2021/09/05 09:40:44;;;;;;;26.38;15.73;;;28.10;70.20;;;;;;5110226;28;20051;-75
2021/09/05 09:43:17;;;;;;;29.75;16.85;;;27.80;70.40;;;;;;5110293;28;20023;-75
2021/09/05 09:45:43;;;;;;;27.85;14.95;;;27.60;70.10;;;;;;5109568;28;20051;-75
2021/09/05 09:48:09;;;;;;;27.48;15.80;;;27.50;70.00;;;;;;5090493;28;20031;-75
2021/09/05 09:50:41;;;;;;;26.77;15.77;;;27.50;69.90;;;;;;5108897;28;20074;-76
2021/09/05 09:53:07;;;;;;;31.90;16.13;;;27.70;69.80;;;;;;5108862;28;20125;-77
2021/09/05 09:55:36;;;;;;;31.45;17.40;;;28.10;70.10;;;;;;5108878;28;20027;-75
2021/09/05 09:58:02;;;;;;;27.50;15.15;;;28.60;69.30;;;;;;5108177;28;20102;-76
2021/09/05 10:00:28;;;;;;;28.20;15.10;;;29.10;68.70;;;;;;5090151;28;20114;-76
2021/09/05 10:02:55;;;;;;;26.42;16.40;;;29.90;67.40;;;;;;5109076;28;20102;-75
2021/09/05 10:05:21;;;;;;;26.95;14.73;;;30.20;65.10;;;;;;5108274;28;20040;-76
2021/09/05 10:07:48;;;;;;;26.75;14.70;;;30.20;64.30;;;;;;5089912;28;20031;-76
2021/09/05 10:10:14;;;;;;;24.98;15.15;;;30.30;63.70;;;;;;5108247;28;20022;-76
2021/09/05 10:12:42;;;;;;;24.75;14.80;;;30.20;63.10;;;;;;5108585;28;20107;-76
2021/09/05 10:15:09;;;;;;;25.55;14.63;;;30.20;62.30;;;;;;5090037;28;20030;-75
2021/09/05 10:17:37;;;;;;;27.45;14.60;;;30.00;62.20;;;;;;5089893;28;20023;-76
2021/09/05 10:20:04;;;;;;;25.13;14.00;;;30.10;62.60;;;;;;5108279;28;20138;-75
2021/09/05 10:22:31;;;;;;;23.52;14.00;;;30.40;62.60;;;;;;5108315;28;20080;-76
2021/09/05 10:25:00;;;;;;;23.38;13.48;;;30.80;61.90;;;;;;5089923;28;20103;-76
2021/09/05 10:27:30;;;;;;;22.63;13.82;;;31.00;61.30;;;;;;5107571;28;20126;-75
2021/09/05 10:30:11;;;;;;;22.95;14.05;;;31.00;60.90;;;;;;5108011;28;20028;-75
2021/09/05 10:32:46;;;;;;;25.02;14.75;;;31.10;60.50;;;;;;5108060;28;20080;-77
2021/09/05 10:35:35;;;;;;;24.20;14.48;;;31.40;60.00;;;;;;5108489;28;20034;-76
2021/09/05 10:38:20;;;;;;;23.17;14.55;;;31.40;59.80;;;;;;5108134;28;20032;-76
2021/09/05 10:40:52;;;;;;;23.77;14.38;;;31.50;59.60;;;;;;5107939;28;20031;-77
2021/09/05 10:43:19;;;;;;;23.30;14.65;;;31.20;58.80;;;;;;5108078;28;20493;-75
2021/09/05 10:45:58;;;;;;;26.33;15.68;;;30.60;58.80;;;;;;5010677;28;2766163;-75
2021/09/05 10:48:45;;;;;;;25.27;14.65;;;30.30;59.70;;;;;;5090830;28;20037;-76
2021/09/05 10:51:12;;;;;;;22.67;14.30;;;30.40;59.70;;;;;;5108958;28;20554;-75
2021/09/05 10:54:08;;;;;;;25.17;13.50;;;30.20;59.50;;;;;;5090848;28;20474;-75
2021/09/05 10:56:43;;;;;;;21.95;13.55;;;30.30;59.40;;;;;;5108738;28;20023;-75
2021/09/05 10:59:14;;;;;;;22.52;13.15;;;30.30;59.30;;;;;;5108592;28;20035;-75
2021/09/05 11:01:46;;;;;;;22.73;13.02;;;30.30;59.40;;;;;;5090187;28;20058;-74
2021/09/05 11:04:12;;;;;;;23.23;13.98;;;30.40;59.20;;;;;;5108459;28;20066;-75
2021/09/05 11:06:57;;;;;;;25.40;13.15;;;30.40;58.80;;;;;;5108404;28;20426;-75
2021/09/05 11:09:23;;;;;;;20.30;12.57;;;30.00;58.30;;;;;;5107647;28;20529;-76
2021/09/05 11:12:04;;;;;;;20.00;11.77;;;29.90;58.40;;;;;;5108567;28;20050;-76
2021/09/05 11:17:02;;;;;;;20.17;12.35;;;29.20;58.30;;;;;;5107776;28;20533;-75
2021/09/05 11:19:28;;;;;;;20.85;13.02;;;29.10;58.40;;;;;;5089622;28;20032;-75
2021/09/05 11:21:54;;;;;;;23.25;13.20;;;29.00;58.60;;;;;;5107752;28;20053;-76
2021/09/05 11:24:20;;;;;;;25.75;14.88;;;28.80;58.60;;;;;;5107984;28;20165;-75
2021/09/05 11:27:24;;;;;;;19.17;11.90;;;28.50;58.80;;;;;;5108187;28;20096;-76
2021/09/05 11:29:50;;;;;;;20.33;12.23;;;28.50;59.70;;;;;;5024551;28;20108;-75
2021/09/05 11:32:17;;;;;;;21.50;12.20;;;28.60;59.30;;;;;;5024833;28;20200;-77
2021/09/05 11:34:52;;;;;;;22.02;12.85;;;28.80;59.40;;;;;;5046924;28;20451;-75
2021/09/05 11:37:29;;;;;;;18.55;11.93;;;29.30;59.20;;;;;;5107719;28;20096;-76
2021/09/05 11:39:55;;;;;;;24.45;13.85;;;29.70;58.70;;;;;;5107420;28;20031;-76
2021/09/05 11:42:21;;;;;;;24.35;13.82;;;30.20;58.10;;;;;;5107495;28;20051;-75
2021/09/05 11:44:47;;;;;;;24.33;13.55;;;30.50;57.90;;;;;;5089350;28;20104;-76
2021/09/05 11:47:18;;;;;;;20.88;12.05;;;30.70;57.00;;;;;;5108180;28;20032;-76
2021/09/05 11:49:49;;;;;;;22.10;13.18;;;30.90;56.80;;;;;;5088982;28;20027;-76
2021/09/05 11:52:22;;;;;;;21.63;11.90;;;31.00;56.40;;;;;;5107634;28;20020;-72
2021/09/05 11:55:13;;;;;;;18.50;12.68;;;31.10;55.90;;;;;;5107149;28;20073;-76
2021/09/05 11:57:55;;;;;;;22.05;12.02;;;31.20;55.80;;;;;;5106942;28;20026;-76
2021/09/05 12:00:35;;;;;;;18.30;12.27;;;31.10;55.50;;;;;;5107367;28;20024;-76
2021/09/05 12:03:07;;;;;;;22.45;12.68;;;31.00;55.50;;;;;;5107051;28;20053;-76
2021/09/05 12:05:34;;;;;;;20.90;13.05;;;31.00;55.30;;;;;;5107126;28;20046;-76
2021/09/05 12:08:01;;;;;;;21.05;12.95;;;30.80;55.20;;;;;;5106816;28;20476;-76
2021/09/05 12:10:28;;;;;;;19.90;12.25;;;30.70;55.60;;;;;;5088929;28;20026;-77
2021/09/05 12:13:00;;;;;;;20.15;12.13;;;30.90;55.60;;;;;;5107708;28;20111;-76
2021/09/05 12:15:29;;;;;;;22.60;13.35;;;31.00;55.00;;;;;;5107070;28;20262;-77
2021/09/05 12:17:55;;;;;;;21.50;12.30;;;31.00;55.00;;;;;;5106743;28;20077;-77
2021/09/05 12:20:22;;;;;;;19.17;12.68;;;30.80;54.50;;;;;;5088458;28;20461;-78
2021/09/05 12:22:54;;;;;;;19.48;11.77;;;30.60;54.60;;;;;;5107596;28;20145;-76
2021/09/05 12:25:30;;;;;;;19.63;11.27;;;30.50;54.90;;;;;;5107119;28;20032;-77
2021/09/05 12:28:02;;;;;;;18.38;11.40;;;30.30;55.20;;;;;;5106887;28;20020;-76
2021/09/05 12:30:51;;;;;;;18.65;12.45;;;30.20;55.20;;;;;;5088344;28;20023;-76
2021/09/05 12:33:40;;;;;;;27.38;12.52;;;29.90;55.50;;;;;;5106806;28;20493;-77
2021/09/05 12:36:14;;;;;;;21.25;12.38;;;29.90;55.50;;;;;;5094520;28;20159;-77
2021/09/05 12:38:40;;;;;;;20.15;11.35;;;30.00;55.60;;;;;;5088284;28;20482;-77